メインページ
METAR-TAF:

METAR-TAF

空港 :

ブルネイ, ブルネイ

ブルネイ国際空港

緯度: 04-56N, 経度: 114-56E, 海抜: 22m

現時点の気象観測

当レポートは18分前の01:00(UTC)に作成
の風 6kt
気温 29°C
湿度 74%
気圧 1010 hPa
視程10km以上
高度1500ftの雲はほとんどない
高度14000ftの雲は散在している
高度27000ftの千切れ雲あり

METAR: WBSB 230100Z 18006KT 9999 FEW015 SCT140 BKN270 29/24 Q1010 NOSIG

時間: 09:18 (01:18 UTC)

予報

当レポートは2時間28分前の22:50(UTC)に作成
予報は23日の 00時(UTC)から 24日の 06時(UTC)まで有効
南/南西の風 4kt
視程10km以上
高度1400ftの雲はほとんどない
23日の 00時(UTC)から 23日の 02時(UTC)まで一時的に
視程: 8000m
小雨
23日の 02時(UTC)から 23日の 04時(UTC)まで徐々に
北西の風 9kt
高度1600ftの雲は散在している
高度1700ftの雲はほとんどない, 積乱雲.
23日の 06時(UTC)から 23日の 10時(UTC)まで一時的に
視程: 7000m
弱いにわか雨

TAF: WBSB 222250Z 2300/2406 20004KT 9999 FEW014 TEMPO 2300/2302 8000 -RA BECMG 2302/2304 32009KT SCT016 FEW017CB TEMPO 2306/2310 7000 -SHRA

4,000以上の空港の気象観測と天気予報(METAR報とTAF報)

利用可能な観測所は地図上に黄色い丸と赤い丸で示す。

丸の上にカーソルを重ねると観測所名を参照できる。

次にクリックすると気象観測と天気予報を参照できる。

マップの切り替え:黒色「×」印の緑ボタンをクリックして拡大、「-」印の緑ボタンをクリックして縮小、緑色の三角印をクリックして隣りの地図に切り替え


METAR-TAF: